sensor_id;sensor_type;location;lat;lon;timestamp;temperature;humidity
20891;DHT22;10605;52.968;8.844;2023-03-18T00:00:03;11.50;99.90
20891;DHT22;10605;52.968;8.844;2023-03-18T00:02:37;11.50;99.90
20891;DHT22;10605;52.968;8.844;2023-03-18T00:05:05;11.50;99.90
20891;DHT22;10605;52.968;8.844;2023-03-18T00:07:32;11.40;99.90
20891;DHT22;10605;52.968;8.844;2023-03-18T00:09:58;11.40;99.90
20891;DHT22;10605;52.968;8.844;2023-03-18T00:12:24;11.50;99.90
20891;DHT22;10605;52.968;8.844;2023-03-18T00:14:50;11.50;99.90
20891;DHT22;10605;52.968;8.844;2023-03-18T00:17:16;11.50;99.90
20891;DHT22;10605;52.968;8.844;2023-03-18T00:19:42;11.50;99.90
20891;DHT22;10605;52.968;8.844;2023-03-18T00:22:08;11.40;99.90
20891;DHT22;10605;52.968;8.844;2023-03-18T00:24:35;11.50;99.90
20891;DHT22;10605;52.968;8.844;2023-03-18T00:27:02;11.50;99.90
20891;DHT22;10605;52.968;8.844;2023-03-18T00:29:28;11.40;99.90
20891;DHT22;10605;52.968;8.844;2023-03-18T00:31:56;11.50;99.90
20891;DHT22;10605;52.968;8.844;2023-03-18T00:34:22;11.40;99.90
20891;DHT22;10605;52.968;8.844;2023-03-18T00:36:48;11.50;99.90
20891;DHT22;10605;52.968;8.844;2023-03-18T00:39:24;11.40;99.90
20891;DHT22;10605;52.968;8.844;2023-03-18T00:41:55;11.40;99.90
20891;DHT22;10605;52.968;8.844;2023-03-18T00:44:21;11.40;99.90
20891;DHT22;10605;52.968;8.844;2023-03-18T00:46:47;11.40;99.90
20891;DHT22;10605;52.968;8.844;2023-03-18T00:49:13;11.40;99.90
20891;DHT22;10605;52.968;8.844;2023-03-18T00:51:39;11.40;99.90
20891;DHT22;10605;52.968;8.844;2023-03-18T00:54:10;11.40;99.90
20891;DHT22;10605;52.968;8.844;2023-03-18T00:56:36;11.40;99.90
20891;DHT22;10605;52.968;8.844;2023-03-18T00:59:03;11.40;99.90
20891;DHT22;10605;52.968;8.844;2023-03-18T01:01:29;11.40;99.90
20891;DHT22;10605;52.968;8.844;2023-03-18T01:03:56;11.30;99.90
20891;DHT22;10605;52.968;8.844;2023-03-18T01:06:27;11.30;99.90
20891;DHT22;10605;52.968;8.844;2023-03-18T01:08:54;11.40;99.90
20891;DHT22;10605;52.968;8.844;2023-03-18T01:11:21;11.40;99.90
20891;DHT22;10605;52.968;8.844;2023-03-18T01:13:47;11.40;99.90
20891;DHT22;10605;52.968;8.844;2023-03-18T01:16:14;11.40;99.90
20891;DHT22;10605;52.968;8.844;2023-03-18T01:18:41;11.40;99.90
20891;DHT22;10605;52.968;8.844;2023-03-18T01:21:08;11.40;99.90
20891;DHT22;10605;52.968;8.844;2023-03-18T01:23:35;11.40;99.90
20891;DHT22;10605;52.968;8.844;2023-03-18T01:26:01;11.30;99.90
20891;DHT22;10605;52.968;8.844;2023-03-18T01:28:27;11.30;99.90
20891;DHT22;10605;52.968;8.844;2023-03-18T01:30:54;11.30;99.90
20891;DHT22;10605;52.968;8.844;2023-03-18T01:33:20;11.30;99.90
20891;DHT22;10605;52.968;8.844;2023-03-18T01:35:53;11.20;99.90
20891;DHT22;10605;52.968;8.844;2023-03-18T01:38:19;11.20;99.90
20891;DHT22;10605;52.968;8.844;2023-03-18T01:40:44;11.20;99.90
20891;DHT22;10605;52.968;8.844;2023-03-18T01:45:36;11.10;99.90
20891;DHT22;10605;52.968;8.844;2023-03-18T01:48:03;11.00;99.90
20891;DHT22;10605;52.968;8.844;2023-03-18T01:50:34;11.00;99.90
20891;DHT22;10605;52.968;8.844;2023-03-18T01:53:05;10.90;99.90
20891;DHT22;10605;52.968;8.844;2023-03-18T01:55:33;10.90;99.90
20891;DHT22;10605;52.968;8.844;2023-03-18T01:58:03;10.90;99.90
20891;DHT22;10605;52.968;8.844;2023-03-18T02:00:33;10.80;99.90
20891;DHT22;10605;52.968;8.844;2023-03-18T02:03:02;10.80;99.90
20891;DHT22;10605;52.968;8.844;2023-03-18T02:05:29;10.80;99.90
20891;DHT22;10605;52.968;8.844;2023-03-18T02:07:55;10.80;99.90
20891;DHT22;10605;52.968;8.844;2023-03-18T02:10:24;10.80;99.90
20891;DHT22;10605;52.968;8.844;2023-03-18T02:13:19;10.70;99.90
20891;DHT22;10605;52.968;8.844;2023-03-18T02:15:50;10.70;99.90
20891;DHT22;10605;52.968;8.844;2023-03-18T02:18:27;10.80;99.90
20891;DHT22;10605;52.968;8.844;2023-03-18T02:23:37;10.70;99.90
20891;DHT22;10605;52.968;8.844;2023-03-18T02:28:49;10.60;99.90
20891;DHT22;10605;52.968;8.844;2023-03-18T02:31:16;10.70;99.90
20891;DHT22;10605;52.968;8.844;2023-03-18T02:33:43;10.70;99.90
20891;DHT22;10605;52.968;8.844;2023-03-18T02:36:23;10.70;99.90
20891;DHT22;10605;52.968;8.844;2023-03-18T02:38:52;10.70;99.90
20891;DHT22;10605;52.968;8.844;2023-03-18T02:41:23;10.70;99.90
20891;DHT22;10605;52.968;8.844;2023-03-18T02:43:50;10.70;99.90
20891;DHT22;10605;52.968;8.844;2023-03-18T02:49:01;10.70;99.90
20891;DHT22;10605;52.968;8.844;2023-03-18T02:51:28;10.70;99.90
20891;DHT22;10605;52.968;8.844;2023-03-18T02:54:03;10.70;99.90
20891;DHT22;10605;52.968;8.844;2023-03-18T02:56:30;10.70;99.90
20891;DHT22;10605;52.968;8.844;2023-03-18T02:58:55;10.70;99.90
20891;DHT22;10605;52.968;8.844;2023-03-18T03:01:22;10.70;99.90
20891;DHT22;10605;52.968;8.844;2023-03-18T03:03:49;10.70;99.90
20891;DHT22;10605;52.968;8.844;2023-03-18T03:06:14;10.70;99.90
20891;DHT22;10605;52.968;8.844;2023-03-18T03:08:41;10.70;99.90
20891;DHT22;10605;52.968;8.844;2023-03-18T03:11:07;10.70;99.90
20891;DHT22;10605;52.968;8.844;2023-03-18T03:13:33;10.70;99.90
20891;DHT22;10605;52.968;8.844;2023-03-18T03:15:59;10.70;99.90
20891;DHT22;10605;52.968;8.844;2023-03-18T03:18:25;10.70;99.90
20891;DHT22;10605;52.968;8.844;2023-03-18T03:20:51;10.70;99.90
20891;DHT22;10605;52.968;8.844;2023-03-18T03:23:17;10.70;99.90
20891;DHT22;10605;52.968;8.844;2023-03-18T03:25:43;10.70;99.90
20891;DHT22;10605;52.968;8.844;2023-03-18T03:28:10;10.70;99.90
20891;DHT22;10605;52.968;8.844;2023-03-18T03:30:36;10.60;99.90
20891;DHT22;10605;52.968;8.844;2023-03-18T03:33:03;10.60;99.90
20891;DHT22;10605;52.968;8.844;2023-03-18T03:35:28;10.60;99.90
20891;DHT22;10605;52.968;8.844;2023-03-18T03:37:55;10.60;99.90
20891;DHT22;10605;52.968;8.844;2023-03-18T03:40:22;10.60;99.90
20891;DHT22;10605;52.968;8.844;2023-03-18T03:42:48;10.70;99.90
20891;DHT22;10605;52.968;8.844;2023-03-18T03:45:15;10.70;99.90
20891;DHT22;10605;52.968;8.844;2023-03-18T03:47:42;10.60;99.90
20891;DHT22;10605;52.968;8.844;2023-03-18T03:50:09;10.60;99.90
20891;DHT22;10605;52.968;8.844;2023-03-18T03:52:36;10.60;99.90
20891;DHT22;10605;52.968;8.844;2023-03-18T03:55:04;10.60;99.90
20891;DHT22;10605;52.968;8.844;2023-03-18T03:57:32;10.60;99.90
20891;DHT22;10605;52.968;8.844;2023-03-18T03:59:58;10.60;99.90
20891;DHT22;10605;52.968;8.844;2023-03-18T04:02:23;10.60;99.90
20891;DHT22;10605;52.968;8.844;2023-03-18T04:04:52;10.60;99.90
20891;DHT22;10605;52.968;8.844;2023-03-18T04:07:18;10.60;99.90
20891;DHT22;10605;52.968;8.844;2023-03-18T04:09:43;10.60;99.90
20891;DHT22;10605;52.968;8.844;2023-03-18T04:12:10;10.60;99.90
20891;DHT22;10605;52.968;8.844;2023-03-18T04:14:36;10.60;99.90
20891;DHT22;10605;52.968;8.844;2023-03-18T04:17:02;10.60;99.90
20891;DHT22;10605;52.968;8.844;2023-03-18T04:19:28;10.60;99.90
20891;DHT22;10605;52.968;8.844;2023-03-18T04:21:54;10.60;99.90
20891;DHT22;10605;52.968;8.844;2023-03-18T04:24:21;10.60;99.90
20891;DHT22;10605;52.968;8.844;2023-03-18T04:26:47;10.60;99.90
20891;DHT22;10605;52.968;8.844;2023-03-18T04:29:13;10.60;99.90
20891;DHT22;10605;52.968;8.844;2023-03-18T04:31:38;10.60;99.90
20891;DHT22;10605;52.968;8.844;2023-03-18T04:34:04;10.60;99.90
20891;DHT22;10605;52.968;8.844;2023-03-18T04:36:30;10.60;99.90
20891;DHT22;10605;52.968;8.844;2023-03-18T04:38:56;10.50;99.90
20891;DHT22;10605;52.968;8.844;2023-03-18T04:41:22;10.60;99.90
20891;DHT22;10605;52.968;8.844;2023-03-18T04:43:48;10.60;99.90
20891;DHT22;10605;52.968;8.844;2023-03-18T04:46:14;10.60;99.90
20891;DHT22;10605;52.968;8.844;2023-03-18T04:48:40;10.50;99.90
20891;DHT22;10605;52.968;8.844;2023-03-18T04:51:07;10.50;99.90
20891;DHT22;10605;52.968;8.844;2023-03-18T04:53:34;10.50;99.90
20891;DHT22;10605;52.968;8.844;2023-03-18T04:56:00;10.50;99.90
20891;DHT22;10605;52.968;8.844;2023-03-18T04:58:26;10.50;99.90
20891;DHT22;10605;52.968;8.844;2023-03-18T05:00:52;10.50;99.90
20891;DHT22;10605;52.968;8.844;2023-03-18T05:03:18;10.60;99.90
20891;DHT22;10605;52.968;8.844;2023-03-18T05:05:43;10.60;99.90
20891;DHT22;10605;52.968;8.844;2023-03-18T05:08:09;10.50;99.90
20891;DHT22;10605;52.968;8.844;2023-03-18T05:10:35;10.40;99.90
20891;DHT22;10605;52.968;8.844;2023-03-18T05:13:01;10.30;99.90
20891;DHT22;10605;52.968;8.844;2023-03-18T05:15:28;10.30;99.90
20891;DHT22;10605;52.968;8.844;2023-03-18T05:17:53;10.20;99.90
20891;DHT22;10605;52.968;8.844;2023-03-18T05:20:19;10.10;99.90
20891;DHT22;10605;52.968;8.844;2023-03-18T05:22:45;10.10;99.90
20891;DHT22;10605;52.968;8.844;2023-03-18T05:25:11;10.10;99.90
20891;DHT22;10605;52.968;8.844;2023-03-18T05:27:37;10.00;99.90
20891;DHT22;10605;52.968;8.844;2023-03-18T05:30:07;10.00;99.90
20891;DHT22;10605;52.968;8.844;2023-03-18T05:32:33;10.00;99.90
20891;DHT22;10605;52.968;8.844;2023-03-18T05:34:59;10.10;99.90
20891;DHT22;10605;52.968;8.844;2023-03-18T05:37:25;10.10;99.90
20891;DHT22;10605;52.968;8.844;2023-03-18T05:39:51;10.10;99.90
20891;DHT22;10605;52.968;8.844;2023-03-18T05:42:18;10.10;99.90
20891;DHT22;10605;52.968;8.844;2023-03-18T05:44:44;10.10;99.90
20891;DHT22;10605;52.968;8.844;2023-03-18T05:47:10;10.20;99.90
20891;DHT22;10605;52.968;8.844;2023-03-18T05:49:35;10.20;99.90
20891;DHT22;10605;52.968;8.844;2023-03-18T05:52:02;10.20;99.90
20891;DHT22;10605;52.968;8.844;2023-03-18T05:54:28;10.20;99.90
20891;DHT22;10605;52.968;8.844;2023-03-18T05:56:54;10.20;99.90
20891;DHT22;10605;52.968;8.844;2023-03-18T05:59:20;10.20;99.90
20891;DHT22;10605;52.968;8.844;2023-03-18T06:01:48;10.30;99.90
20891;DHT22;10605;52.968;8.844;2023-03-18T06:04:14;10.30;99.90
20891;DHT22;10605;52.968;8.844;2023-03-18T06:06:42;10.30;99.90
20891;DHT22;10605;52.968;8.844;2023-03-18T06:09:09;10.30;99.90
20891;DHT22;10605;52.968;8.844;2023-03-18T06:11:36;10.30;99.90
20891;DHT22;10605;52.968;8.844;2023-03-18T06:14:03;10.40;99.90
20891;DHT22;10605;52.968;8.844;2023-03-18T06:16:30;10.50;99.90
20891;DHT22;10605;52.968;8.844;2023-03-18T06:18:57;10.50;99.90
20891;DHT22;10605;52.968;8.844;2023-03-18T06:21:23;10.60;99.90
20891;DHT22;10605;52.968;8.844;2023-03-18T06:23:49;10.60;99.90
20891;DHT22;10605;52.968;8.844;2023-03-18T06:26:15;10.60;99.90
20891;DHT22;10605;52.968;8.844;2023-03-18T06:28:41;10.60;99.90
20891;DHT22;10605;52.968;8.844;2023-03-18T06:31:07;10.60;99.90
20891;DHT22;10605;52.968;8.844;2023-03-18T06:33:32;10.70;99.90
20891;DHT22;10605;52.968;8.844;2023-03-18T06:35:58;10.70;99.90
20891;DHT22;10605;52.968;8.844;2023-03-18T06:38:25;10.70;99.90
20891;DHT22;10605;52.968;8.844;2023-03-18T06:40:53;10.70;99.90
20891;DHT22;10605;52.968;8.844;2023-03-18T06:43:19;10.70;99.90
20891;DHT22;10605;52.968;8.844;2023-03-18T06:45:45;10.70;99.90
20891;DHT22;10605;52.968;8.844;2023-03-18T06:48:10;10.70;99.90
20891;DHT22;10605;52.968;8.844;2023-03-18T06:50:36;10.80;99.90
20891;DHT22;10605;52.968;8.844;2023-03-18T06:53:05;10.90;99.90
20891;DHT22;10605;52.968;8.844;2023-03-18T06:55:31;10.90;99.90
20891;DHT22;10605;52.968;8.844;2023-03-18T06:57:57;11.10;99.90
20891;DHT22;10605;52.968;8.844;2023-03-18T07:00:23;11.20;99.90
20891;DHT22;10605;52.968;8.844;2023-03-18T07:02:50;11.30;99.90
20891;DHT22;10605;52.968;8.844;2023-03-18T07:05:15;11.30;99.90
20891;DHT22;10605;52.968;8.844;2023-03-18T07:07:42;11.40;99.90
20891;DHT22;10605;52.968;8.844;2023-03-18T07:10:13;11.40;99.90
20891;DHT22;10605;52.968;8.844;2023-03-18T07:12:40;11.30;99.90
20891;DHT22;10605;52.968;8.844;2023-03-18T07:15:06;11.30;99.90
20891;DHT22;10605;52.968;8.844;2023-03-18T07:17:32;11.50;99.90
20891;DHT22;10605;52.968;8.844;2023-03-18T07:19:58;11.60;99.90
20891;DHT22;10605;52.968;8.844;2023-03-18T07:22:23;11.60;99.90
20891;DHT22;10605;52.968;8.844;2023-03-18T07:24:49;11.70;99.90
20891;DHT22;10605;52.968;8.844;2023-03-18T07:27:16;11.70;99.90
20891;DHT22;10605;52.968;8.844;2023-03-18T07:29:42;11.70;99.90
20891;DHT22;10605;52.968;8.844;2023-03-18T07:32:08;11.70;99.90
20891;DHT22;10605;52.968;8.844;2023-03-18T07:34:34;11.70;99.90
20891;DHT22;10605;52.968;8.844;2023-03-18T07:37:00;11.60;99.90
20891;DHT22;10605;52.968;8.844;2023-03-18T07:39:26;11.70;99.90
20891;DHT22;10605;52.968;8.844;2023-03-18T07:41:53;11.80;99.90
20891;DHT22;10605;52.968;8.844;2023-03-18T07:44:18;11.80;99.90
20891;DHT22;10605;52.968;8.844;2023-03-18T07:46:44;11.80;99.90
20891;DHT22;10605;52.968;8.844;2023-03-18T07:49:11;11.80;99.90
20891;DHT22;10605;52.968;8.844;2023-03-18T07:51:36;11.80;99.90
20891;DHT22;10605;52.968;8.844;2023-03-18T07:54:02;11.90;99.90
20891;DHT22;10605;52.968;8.844;2023-03-18T07:56:29;12.00;99.90
20891;DHT22;10605;52.968;8.844;2023-03-18T07:58:54;12.10;99.90
20891;DHT22;10605;52.968;8.844;2023-03-18T08:01:20;12.20;99.90
20891;DHT22;10605;52.968;8.844;2023-03-18T08:03:46;12.20;99.90
20891;DHT22;10605;52.968;8.844;2023-03-18T08:06:12;12.10;99.90
20891;DHT22;10605;52.968;8.844;2023-03-18T08:08:39;12.00;99.90
20891;DHT22;10605;52.968;8.844;2023-03-18T08:11:06;11.90;99.90
20891;DHT22;10605;52.968;8.844;2023-03-18T08:13:34;11.90;99.90
20891;DHT22;10605;52.968;8.844;2023-03-18T08:15:59;11.90;99.90
20891;DHT22;10605;52.968;8.844;2023-03-18T08:18:25;12.00;99.90
20891;DHT22;10605;52.968;8.844;2023-03-18T08:20:51;12.00;99.90
20891;DHT22;10605;52.968;8.844;2023-03-18T08:23:17;12.10;99.90
20891;DHT22;10605;52.968;8.844;2023-03-18T08:25:47;12.30;99.90
20891;DHT22;10605;52.968;8.844;2023-03-18T08:28:14;12.50;99.90
20891;DHT22;10605;52.968;8.844;2023-03-18T08:30:40;12.50;99.90
20891;DHT22;10605;52.968;8.844;2023-03-18T08:33:06;12.60;99.90
20891;DHT22;10605;52.968;8.844;2023-03-18T08:35:32;12.70;99.90
20891;DHT22;10605;52.968;8.844;2023-03-18T08:37:58;12.60;99.90
20891;DHT22;10605;52.968;8.844;2023-03-18T08:40:24;12.80;99.90
20891;DHT22;10605;52.968;8.844;2023-03-18T08:42:50;12.80;99.90
20891;DHT22;10605;52.968;8.844;2023-03-18T08:45:17;12.70;99.90
20891;DHT22;10605;52.968;8.844;2023-03-18T08:47:42;12.80;99.90
20891;DHT22;10605;52.968;8.844;2023-03-18T08:50:08;12.70;99.90
20891;DHT22;10605;52.968;8.844;2023-03-18T08:52:35;12.70;99.90
20891;DHT22;10605;52.968;8.844;2023-03-18T08:55:04;12.70;99.90
20891;DHT22;10605;52.968;8.844;2023-03-18T08:57:30;12.60;99.90
20891;DHT22;10605;52.968;8.844;2023-03-18T08:59:56;12.70;99.90
20891;DHT22;10605;52.968;8.844;2023-03-18T09:02:22;12.70;99.90
20891;DHT22;10605;52.968;8.844;2023-03-18T09:04:48;12.80;99.90
20891;DHT22;10605;52.968;8.844;2023-03-18T09:07:13;12.70;99.90
20891;DHT22;10605;52.968;8.844;2023-03-18T09:09:39;12.70;99.90
20891;DHT22;10605;52.968;8.844;2023-03-18T09:12:05;12.70;99.90
20891;DHT22;10605;52.968;8.844;2023-03-18T09:14:32;12.70;99.90
20891;DHT22;10605;52.968;8.844;2023-03-18T09:16:59;12.70;99.90
20891;DHT22;10605;52.968;8.844;2023-03-18T09:19:26;12.70;99.90
20891;DHT22;10605;52.968;8.844;2023-03-18T09:21:51;12.80;99.90
20891;DHT22;10605;52.968;8.844;2023-03-18T09:24:17;12.90;99.90
20891;DHT22;10605;52.968;8.844;2023-03-18T09:26:43;13.10;99.90
20891;DHT22;10605;52.968;8.844;2023-03-18T09:29:09;13.60;99.90
20891;DHT22;10605;52.968;8.844;2023-03-18T09:31:35;14.20;99.90
20891;DHT22;10605;52.968;8.844;2023-03-18T09:34:02;14.70;99.90
20891;DHT22;10605;52.968;8.844;2023-03-18T09:36:29;15.00;99.90
20891;DHT22;10605;52.968;8.844;2023-03-18T09:38:55;14.90;99.90
20891;DHT22;10605;52.968;8.844;2023-03-18T09:41:25;14.80;99.90
20891;DHT22;10605;52.968;8.844;2023-03-18T09:44:42;14.50;99.90
20891;DHT22;10605;52.968;8.844;2023-03-18T09:52:30;14.90;99.90
20891;DHT22;10605;52.968;8.844;2023-03-18T09:55:04;15.30;99.90
20891;DHT22;10605;52.968;8.844;2023-03-18T09:57:37;15.60;99.90
20891;DHT22;10605;52.968;8.844;2023-03-18T10:02:40;16.10;99.90
20891;DHT22;10605;52.968;8.844;2023-03-18T10:07:54;16.50;99.90
20891;DHT22;10605;52.968;8.844;2023-03-18T10:10:28;16.60;99.90
20891;DHT22;10605;52.968;8.844;2023-03-18T10:13:02;17.40;99.90
20891;DHT22;10605;52.968;8.844;2023-03-18T10:15:38;17.90;99.90
20891;DHT22;10605;52.968;8.844;2023-03-18T10:25:58;20.20;99.90
20891;DHT22;10605;52.968;8.844;2023-03-18T10:34:05;19.00;99.90
20891;DHT22;10605;52.968;8.844;2023-03-18T10:39:18;19.00;99.90
20891;DHT22;10605;52.968;8.844;2023-03-18T10:41:50;18.80;99.90
20891;DHT22;10605;52.968;8.844;2023-03-18T10:44:34;19.20;99.90
20891;DHT22;10605;52.968;8.844;2023-03-18T10:49:36;18.40;99.90
20891;DHT22;10605;52.968;8.844;2023-03-18T10:52:08;17.90;99.90
20891;DHT22;10605;52.968;8.844;2023-03-18T10:54:40;18.10;99.90
20891;DHT22;10605;52.968;8.844;2023-03-18T11:04:33;19.30;99.90
20891;DHT22;10605;52.968;8.844;2023-03-18T11:07:54;18.70;99.90
20891;DHT22;10605;52.968;8.844;2023-03-18T11:10:51;19.30;99.90
20891;DHT22;10605;52.968;8.844;2023-03-18T11:13:19;19.00;99.90
20891;DHT22;10605;52.968;8.844;2023-03-18T11:15:54;19.20;99.90
20891;DHT22;10605;52.968;8.844;2023-03-18T11:18:48;19.10;99.90
20891;DHT22;10605;52.968;8.844;2023-03-18T11:21:26;19.10;99.90
20891;DHT22;10605;52.968;8.844;2023-03-18T11:24:01;19.50;99.90
20891;DHT22;10605;52.968;8.844;2023-03-18T11:27:02;19.50;99.90
20891;DHT22;10605;52.968;8.844;2023-03-18T11:29:44;19.20;99.90
20891;DHT22;10605;52.968;8.844;2023-03-18T11:33:20;19.90;99.90
20891;DHT22;10605;52.968;8.844;2023-03-18T11:36:23;19.90;99.90
20891;DHT22;10605;52.968;8.844;2023-03-18T11:39:59;21.50;99.90
20891;DHT22;10605;52.968;8.844;2023-03-18T11:42:54;20.90;99.90
20891;DHT22;10605;52.968;8.844;2023-03-18T11:46:09;20.80;99.90
20891;DHT22;10605;52.968;8.844;2023-03-18T11:48:42;20.90;99.90
20891;DHT22;10605;52.968;8.844;2023-03-18T11:51:26;21.60;99.90
20891;DHT22;10605;52.968;8.844;2023-03-18T12:07:37;23.30;99.90
20891;DHT22;10605;52.968;8.844;2023-03-18T12:20:50;22.80;99.90
20891;DHT22;10605;52.968;8.844;2023-03-18T12:26:39;24.90;99.90
20891;DHT22;10605;52.968;8.844;2023-03-18T12:32:25;24.60;99.90
20891;DHT22;10605;52.968;8.844;2023-03-18T12:35:24;24.20;98.90
20891;DHT22;10605;52.968;8.844;2023-03-18T12:41:28;24.30;99.90
20891;DHT22;10605;52.968;8.844;2023-03-18T12:47:32;24.70;96.20
20891;DHT22;10605;52.968;8.844;2023-03-18T12:54:05;26.80;94.80
20891;DHT22;10605;52.968;8.844;2023-03-18T12:56:26;27.30;92.30
20891;DHT22;10605;52.968;8.844;2023-03-18T12:59:21;27.70;89.40
20891;DHT22;10605;52.968;8.844;2023-03-18T13:05:40;24.50;91.30
20891;DHT22;10605;52.968;8.844;2023-03-18T13:15:01;20.70;99.90
20891;DHT22;10605;52.968;8.844;2023-03-18T13:16:55;20.90;99.90
20891;DHT22;10605;52.968;8.844;2023-03-18T13:19:39;20.10;99.90
20891;DHT22;10605;52.968;8.844;2023-03-18T13:28:43;19.70;99.90
20891;DHT22;10605;52.968;8.844;2023-03-18T13:41:34;19.20;99.90
20891;DHT22;10605;52.968;8.844;2023-03-18T13:44:17;19.00;99.90
20891;DHT22;10605;52.968;8.844;2023-03-18T13:47:01;19.20;99.90
20891;DHT22;10605;52.968;8.844;2023-03-18T13:49:33;19.00;99.90
20891;DHT22;10605;52.968;8.844;2023-03-18T13:54:57;18.80;99.90
20891;DHT22;10605;52.968;8.844;2023-03-18T13:58:26;18.80;99.90
20891;DHT22;10605;52.968;8.844;2023-03-18T14:00:43;18.60;99.90
20891;DHT22;10605;52.968;8.844;2023-03-18T14:03:51;18.70;99.90
20891;DHT22;10605;52.968;8.844;2023-03-18T14:06:55;18.70;99.90
20891;DHT22;10605;52.968;8.844;2023-03-18T14:09:34;18.60;99.90
20891;DHT22;10605;52.968;8.844;2023-03-18T14:12:29;18.50;99.90
20891;DHT22;10605;52.968;8.844;2023-03-18T14:15:41;18.20;99.90
20891;DHT22;10605;52.968;8.844;2023-03-18T14:22:24;18.40;99.90
20891;DHT22;10605;52.968;8.844;2023-03-18T14:28:23;18.80;99.90
20891;DHT22;10605;52.968;8.844;2023-03-18T14:48:11;18.40;99.90
20891;DHT22;10605;52.968;8.844;2023-03-18T14:51:20;18.20;99.90
20891;DHT22;10605;52.968;8.844;2023-03-18T14:53:54;17.90;99.90
20891;DHT22;10605;52.968;8.844;2023-03-18T14:56:51;17.80;99.90
20891;DHT22;10605;52.968;8.844;2023-03-18T14:59:30;17.80;99.90
20891;DHT22;10605;52.968;8.844;2023-03-18T15:02:01;17.60;99.90
20891;DHT22;10605;52.968;8.844;2023-03-18T15:04:32;17.70;99.90
20891;DHT22;10605;52.968;8.844;2023-03-18T15:07:07;17.70;99.90
20891;DHT22;10605;52.968;8.844;2023-03-18T15:26:38;17.60;99.90
20891;DHT22;10605;52.968;8.844;2023-03-18T15:31:49;17.70;99.90
20891;DHT22;10605;52.968;8.844;2023-03-18T15:34:29;17.70;99.90
20891;DHT22;10605;52.968;8.844;2023-03-18T15:37:01;17.70;99.90
20891;DHT22;10605;52.968;8.844;2023-03-18T15:39:33;17.70;99.90
20891;DHT22;10605;52.968;8.844;2023-03-18T15:42:18;17.50;99.90
20891;DHT22;10605;52.968;8.844;2023-03-18T15:45:03;17.60;99.90
20891;DHT22;10605;52.968;8.844;2023-03-18T15:47:44;17.60;99.90
20891;DHT22;10605;52.968;8.844;2023-03-18T15:50:30;17.50;99.90
20891;DHT22;10605;52.968;8.844;2023-03-18T15:56:31;17.40;99.90
20891;DHT22;10605;52.968;8.844;2023-03-18T15:59:12;17.40;99.90
20891;DHT22;10605;52.968;8.844;2023-03-18T16:01:41;17.30;99.90
20891;DHT22;10605;52.968;8.844;2023-03-18T16:04:10;17.10;99.90
20891;DHT22;10605;52.968;8.844;2023-03-18T16:06:38;17.20;99.90
20891;DHT22;10605;52.968;8.844;2023-03-18T16:09:22;17.20;99.90
20891;DHT22;10605;52.968;8.844;2023-03-18T16:11:52;17.20;99.90
20891;DHT22;10605;52.968;8.844;2023-03-18T16:14:21;17.10;99.90
20891;DHT22;10605;52.968;8.844;2023-03-18T16:16:48;16.90;99.90
20891;DHT22;10605;52.968;8.844;2023-03-18T16:19:22;16.90;99.90
20891;DHT22;10605;52.968;8.844;2023-03-18T16:21:50;16.80;99.90
20891;DHT22;10605;52.968;8.844;2023-03-18T16:24:16;16.60;99.90
20891;DHT22;10605;52.968;8.844;2023-03-18T16:26:42;16.40;99.90
20891;DHT22;10605;52.968;8.844;2023-03-18T16:29:15;16.30;99.90
20891;DHT22;10605;52.968;8.844;2023-03-18T16:31:41;16.20;99.90
20891;DHT22;10605;52.968;8.844;2023-03-18T16:34:15;16.10;99.90
20891;DHT22;10605;52.968;8.844;2023-03-18T16:36:41;16.00;99.90
20891;DHT22;10605;52.968;8.844;2023-03-18T16:39:22;15.90;99.90
20891;DHT22;10605;52.968;8.844;2023-03-18T16:41:59;15.70;99.90
20891;DHT22;10605;52.968;8.844;2023-03-18T16:44:25;15.60;99.90
20891;DHT22;10605;52.968;8.844;2023-03-18T16:46:55;15.60;99.90
20891;DHT22;10605;52.968;8.844;2023-03-18T16:49:23;15.40;99.90
20891;DHT22;10605;52.968;8.844;2023-03-18T16:51:50;15.30;99.90
20891;DHT22;10605;52.968;8.844;2023-03-18T16:54:24;15.10;99.90
20891;DHT22;10605;52.968;8.844;2023-03-18T16:56:54;15.00;99.90
20891;DHT22;10605;52.968;8.844;2023-03-18T16:59:22;14.90;99.90
20891;DHT22;10605;52.968;8.844;2023-03-18T17:01:50;14.70;99.90
20891;DHT22;10605;52.968;8.844;2023-03-18T17:04:36;14.60;99.90
20891;DHT22;10605;52.968;8.844;2023-03-18T17:07:03;14.60;99.90
20891;DHT22;10605;52.968;8.844;2023-03-18T17:09:30;14.50;99.90
20891;DHT22;10605;52.968;8.844;2023-03-18T17:12:02;14.40;99.90
20891;DHT22;10605;52.968;8.844;2023-03-18T17:14:39;14.20;99.90
20891;DHT22;10605;52.968;8.844;2023-03-18T17:17:10;14.20;99.90
20891;DHT22;10605;52.968;8.844;2023-03-18T17:19:41;14.00;99.90
20891;DHT22;10605;52.968;8.844;2023-03-18T17:22:33;13.80;99.90
20891;DHT22;10605;52.968;8.844;2023-03-18T17:24:59;13.50;99.90
20891;DHT22;10605;52.968;8.844;2023-03-18T17:27:33;13.30;99.90
20891;DHT22;10605;52.968;8.844;2023-03-18T17:30:19;13.30;99.90
20891;DHT22;10605;52.968;8.844;2023-03-18T17:32:46;13.20;99.90
20891;DHT22;10605;52.968;8.844;2023-03-18T17:35:14;13.20;99.90
20891;DHT22;10605;52.968;8.844;2023-03-18T17:37:41;13.10;99.90
20891;DHT22;10605;52.968;8.844;2023-03-18T17:40:18;13.20;99.90
20891;DHT22;10605;52.968;8.844;2023-03-18T17:42:45;13.00;99.90
20891;DHT22;10605;52.968;8.844;2023-03-18T17:45:28;13.00;99.90
20891;DHT22;10605;52.968;8.844;2023-03-18T17:48:25;12.80;99.90
20891;DHT22;10605;52.968;8.844;2023-03-18T17:50:54;12.80;99.90
20891;DHT22;10605;52.968;8.844;2023-03-18T17:53:22;12.70;99.90
20891;DHT22;10605;52.968;8.844;2023-03-18T17:55:50;12.60;99.90
20891;DHT22;10605;52.968;8.844;2023-03-18T17:58:17;12.60;99.90
20891;DHT22;10605;52.968;8.844;2023-03-18T18:00:43;12.60;99.90
20891;DHT22;10605;52.968;8.844;2023-03-18T18:03:50;12.60;99.90
20891;DHT22;10605;52.968;8.844;2023-03-18T18:06:22;12.60;99.90
20891;DHT22;10605;52.968;8.844;2023-03-18T18:08:50;12.60;99.90
20891;DHT22;10605;52.968;8.844;2023-03-18T18:11:21;12.50;99.90
20891;DHT22;10605;52.968;8.844;2023-03-18T18:13:50;12.60;99.90
20891;DHT22;10605;52.968;8.844;2023-03-18T18:16:17;12.50;99.90
20891;DHT22;10605;52.968;8.844;2023-03-18T18:18:44;12.50;99.90
20891;DHT22;10605;52.968;8.844;2023-03-18T18:21:15;12.50;99.90
20891;DHT22;10605;52.968;8.844;2023-03-18T18:23:42;12.50;99.90
20891;DHT22;10605;52.968;8.844;2023-03-18T18:26:14;12.50;99.90
20891;DHT22;10605;52.968;8.844;2023-03-18T18:28:45;12.60;99.90
20891;DHT22;10605;52.968;8.844;2023-03-18T18:31:13;12.60;99.90
20891;DHT22;10605;52.968;8.844;2023-03-18T18:33:40;12.60;99.90
20891;DHT22;10605;52.968;8.844;2023-03-18T18:36:07;12.70;99.90
20891;DHT22;10605;52.968;8.844;2023-03-18T18:38:33;12.60;99.90